sensor_id;sensor_type;location;lat;lon;timestamp;P1;durP1;ratioP1;P2;durP2;ratioP2
28760;SDS011;15917;50.014;8.352;2022-11-27T00:01:55;40.47;;;15.82;;
28760;SDS011;15917;50.014;8.352;2022-11-27T00:04:21;34.65;;;14.55;;
28760;SDS011;15917;50.014;8.352;2022-11-27T00:06:47;44.00;;;16.90;;
28760;SDS011;15917;50.014;8.352;2022-11-27T00:09:13;44.67;;;16.55;;
28760;SDS011;15917;50.014;8.352;2022-11-27T00:11:40;40.33;;;16.15;;
28760;SDS011;15917;50.014;8.352;2022-11-27T00:14:07;39.85;;;16.98;;
28760;SDS011;15917;50.014;8.352;2022-11-27T00:16:35;39.42;;;16.30;;
28760;SDS011;15917;50.014;8.352;2022-11-27T00:19:01;38.85;;;16.13;;
28760;SDS011;15917;50.014;8.352;2022-11-27T00:21:28;32.55;;;16.30;;
28760;SDS011;15917;50.014;8.352;2022-11-27T00:23:55;41.25;;;17.25;;
28760;SDS011;15917;50.014;8.352;2022-11-27T00:26:22;39.00;;;17.92;;
28760;SDS011;15917;50.014;8.352;2022-11-27T00:28:49;45.85;;;17.67;;
28760;SDS011;15917;50.014;8.352;2022-11-27T00:31:22;40.42;;;17.75;;
28760;SDS011;15917;50.014;8.352;2022-11-27T00:33:56;33.25;;;14.85;;
28760;SDS011;15917;50.014;8.352;2022-11-27T00:36:24;38.30;;;16.80;;
28760;SDS011;15917;50.014;8.352;2022-11-27T00:38:51;38.67;;;16.37;;
28760;SDS011;15917;50.014;8.352;2022-11-27T00:41:18;39.03;;;17.08;;
28760;SDS011;15917;50.014;8.352;2022-11-27T00:43:46;36.17;;;15.52;;
28760;SDS011;15917;50.014;8.352;2022-11-27T00:46:12;32.53;;;15.48;;
28760;SDS011;15917;50.014;8.352;2022-11-27T00:48:42;34.80;;;16.23;;
28760;SDS011;15917;50.014;8.352;2022-11-27T00:51:09;39.22;;;16.23;;
28760;SDS011;15917;50.014;8.352;2022-11-27T00:53:37;37.38;;;15.38;;
28760;SDS011;15917;50.014;8.352;2022-11-27T00:56:03;42.17;;;15.50;;
28760;SDS011;15917;50.014;8.352;2022-11-27T00:58:29;38.55;;;16.15;;
28760;SDS011;15917;50.014;8.352;2022-11-27T01:00:58;37.40;;;16.63;;
28760;SDS011;15917;50.014;8.352;2022-11-27T01:03:26;38.67;;;16.20;;
28760;SDS011;15917;50.014;8.352;2022-11-27T01:05:52;37.42;;;15.27;;
28760;SDS011;15917;50.014;8.352;2022-11-27T01:08:18;35.22;;;15.60;;
28760;SDS011;15917;50.014;8.352;2022-11-27T01:10:51;37.03;;;14.27;;
28760;SDS011;15917;50.014;8.352;2022-11-27T01:13:27;39.15;;;15.27;;
28760;SDS011;15917;50.014;8.352;2022-11-27T01:16:05;42.42;;;15.25;;
28760;SDS011;15917;50.014;8.352;2022-11-27T01:18:34;39.20;;;15.10;;
28760;SDS011;15917;50.014;8.352;2022-11-27T01:21:00;40.40;;;16.38;;
28760;SDS011;15917;50.014;8.352;2022-11-27T01:23:27;33.88;;;15.82;;
28760;SDS011;15917;50.014;8.352;2022-11-27T01:25:53;33.83;;;15.13;;
28760;SDS011;15917;50.014;8.352;2022-11-27T01:28:19;33.95;;;14.27;;
28760;SDS011;15917;50.014;8.352;2022-11-27T01:30:45;37.97;;;15.23;;
28760;SDS011;15917;50.014;8.352;2022-11-27T01:33:11;30.75;;;14.93;;
28760;SDS011;15917;50.014;8.352;2022-11-27T01:35:37;43.03;;;14.68;;
28760;SDS011;15917;50.014;8.352;2022-11-27T01:38:02;37.83;;;16.13;;
28760;SDS011;15917;50.014;8.352;2022-11-27T01:40:28;33.63;;;13.68;;
28760;SDS011;15917;50.014;8.352;2022-11-27T01:42:54;35.60;;;14.98;;
28760;SDS011;15917;50.014;8.352;2022-11-27T01:45:20;28.23;;;14.68;;
28760;SDS011;15917;50.014;8.352;2022-11-27T01:47:57;41.67;;;16.75;;
28760;SDS011;15917;50.014;8.352;2022-11-27T01:50:29;38.60;;;15.70;;
28760;SDS011;15917;50.014;8.352;2022-11-27T01:53:05;42.97;;;16.42;;
28760;SDS011;15917;50.014;8.352;2022-11-27T01:55:41;34.53;;;16.45;;
28760;SDS011;15917;50.014;8.352;2022-11-27T01:58:11;36.97;;;15.55;;
28760;SDS011;15917;50.014;8.352;2022-11-27T02:00:39;38.97;;;16.08;;
28760;SDS011;15917;50.014;8.352;2022-11-27T02:03:05;29.65;;;14.73;;
28760;SDS011;15917;50.014;8.352;2022-11-27T02:05:30;26.95;;;14.15;;
28760;SDS011;15917;50.014;8.352;2022-11-27T02:07:58;31.77;;;13.27;;
28760;SDS011;15917;50.014;8.352;2022-11-27T02:13:13;26.05;;;12.68;;
28760;SDS011;15917;50.014;8.352;2022-11-27T02:29:37;28.88;;;12.23;;
28760;SDS011;15917;50.014;8.352;2022-11-27T02:32:22;22.88;;;12.27;;
28760;SDS011;15917;50.014;8.352;2022-11-27T02:35:03;28.88;;;11.90;;
28760;SDS011;15917;50.014;8.352;2022-11-27T02:37:45;37.75;;;12.32;;
28760;SDS011;15917;50.014;8.352;2022-11-27T02:40:30;30.25;;;11.35;;
28760;SDS011;15917;50.014;8.352;2022-11-27T02:43:09;31.65;;;10.45;;
28760;SDS011;15917;50.014;8.352;2022-11-27T02:45:38;27.83;;;10.38;;
28760;SDS011;15917;50.014;8.352;2022-11-27T02:48:08;24.85;;;10.60;;
28760;SDS011;15917;50.014;8.352;2022-11-27T02:50:37;33.75;;;10.85;;
28760;SDS011;15917;50.014;8.352;2022-11-27T02:53:06;25.65;;;9.77;;
28760;SDS011;15917;50.014;8.352;2022-11-27T02:55:36;21.90;;;8.93;;
28760;SDS011;15917;50.014;8.352;2022-11-27T02:58:04;32.45;;;9.55;;
28760;SDS011;15917;50.014;8.352;2022-11-27T03:00:39;20.13;;;8.48;;
28760;SDS011;15917;50.014;8.352;2022-11-27T03:03:07;21.40;;;8.63;;
28760;SDS011;15917;50.014;8.352;2022-11-27T03:05:38;20.90;;;8.95;;
28760;SDS011;15917;50.014;8.352;2022-11-27T03:08:27;20.05;;;8.50;;
28760;SDS011;15917;50.014;8.352;2022-11-27T03:11:00;33.78;;;7.75;;
28760;SDS011;15917;50.014;8.352;2022-11-27T03:13:31;21.35;;;8.15;;
28760;SDS011;15917;50.014;8.352;2022-11-27T03:16:11;21.80;;;8.02;;
28760;SDS011;15917;50.014;8.352;2022-11-27T03:19:11;21.60;;;8.02;;
28760;SDS011;15917;50.014;8.352;2022-11-27T03:21:49;21.38;;;8.13;;
28760;SDS011;15917;50.014;8.352;2022-11-27T03:24:23;24.63;;;9.10;;
28760;SDS011;15917;50.014;8.352;2022-11-27T03:26:50;30.00;;;9.27;;
28760;SDS011;15917;50.014;8.352;2022-11-27T03:29:17;19.88;;;8.45;;
28760;SDS011;15917;50.014;8.352;2022-11-27T03:31:47;25.88;;;7.88;;
28760;SDS011;15917;50.014;8.352;2022-11-27T03:34:13;23.77;;;9.32;;
28760;SDS011;15917;50.014;8.352;2022-11-27T03:36:40;23.08;;;7.55;;
28760;SDS011;15917;50.014;8.352;2022-11-27T03:39:06;23.88;;;7.60;;
28760;SDS011;15917;50.014;8.352;2022-11-27T03:52:20;22.23;;;8.02;;
28760;SDS011;15917;50.014;8.352;2022-11-27T03:54:58;22.05;;;7.95;;
28760;SDS011;15917;50.014;8.352;2022-11-27T03:57:35;23.08;;;9.02;;
28760;SDS011;15917;50.014;8.352;2022-11-27T04:00:07;24.98;;;8.75;;
28760;SDS011;15917;50.014;8.352;2022-11-27T04:02:42;29.98;;;8.63;;
28760;SDS011;15917;50.014;8.352;2022-11-27T04:05:10;21.42;;;7.78;;
28760;SDS011;15917;50.014;8.352;2022-11-27T04:07:36;15.73;;;8.90;;
28760;SDS011;15917;50.014;8.352;2022-11-27T04:10:03;26.63;;;9.23;;
28760;SDS011;15917;50.014;8.352;2022-11-27T04:12:29;21.23;;;9.23;;
28760;SDS011;15917;50.014;8.352;2022-11-27T04:14:55;30.17;;;8.90;;
28760;SDS011;15917;50.014;8.352;2022-11-27T04:17:20;24.83;;;8.98;;
28760;SDS011;15917;50.014;8.352;2022-11-27T04:19:46;26.98;;;9.73;;
28760;SDS011;15917;50.014;8.352;2022-11-27T04:22:11;20.92;;;9.00;;
28760;SDS011;15917;50.014;8.352;2022-11-27T04:24:37;26.63;;;8.77;;
28760;SDS011;15917;50.014;8.352;2022-11-27T04:27:03;29.63;;;8.57;;
28760;SDS011;15917;50.014;8.352;2022-11-27T04:29:28;21.67;;;7.93;;
28760;SDS011;15917;50.014;8.352;2022-11-27T04:31:54;20.60;;;8.68;;
28760;SDS011;15917;50.014;8.352;2022-11-27T04:34:19;37.15;;;9.32;;
28760;SDS011;15917;50.014;8.352;2022-11-27T04:36:45;24.35;;;9.20;;
28760;SDS011;15917;50.014;8.352;2022-11-27T04:39:11;36.53;;;9.85;;
28760;SDS011;15917;50.014;8.352;2022-11-27T04:41:37;17.83;;;8.38;;
28760;SDS011;15917;50.014;8.352;2022-11-27T04:44:03;27.23;;;10.48;;
28760;SDS011;15917;50.014;8.352;2022-11-27T04:46:29;24.77;;;9.85;;
28760;SDS011;15917;50.014;8.352;2022-11-27T04:48:55;28.55;;;10.02;;
28760;SDS011;15917;50.014;8.352;2022-11-27T04:51:21;31.55;;;10.45;;
28760;SDS011;15917;50.014;8.352;2022-11-27T04:53:47;23.08;;;9.25;;
28760;SDS011;15917;50.014;8.352;2022-11-27T04:56:12;24.40;;;9.80;;
28760;SDS011;15917;50.014;8.352;2022-11-27T04:58:38;21.73;;;9.48;;
28760;SDS011;15917;50.014;8.352;2022-11-27T05:01:03;21.33;;;9.90;;
28760;SDS011;15917;50.014;8.352;2022-11-27T05:03:30;33.85;;;9.98;;
28760;SDS011;15917;50.014;8.352;2022-11-27T05:05:56;34.25;;;10.75;;
28760;SDS011;15917;50.014;8.352;2022-11-27T05:08:22;24.55;;;10.93;;
28760;SDS011;15917;50.014;8.352;2022-11-27T05:10:59;31.60;;;11.43;;
28760;SDS011;15917;50.014;8.352;2022-11-27T05:13:26;38.17;;;12.47;;
28760;SDS011;15917;50.014;8.352;2022-11-27T05:15:52;31.05;;;11.18;;
28760;SDS011;15917;50.014;8.352;2022-11-27T05:18:17;27.17;;;10.85;;
28760;SDS011;15917;50.014;8.352;2022-11-27T05:20:43;29.85;;;11.65;;
28760;SDS011;15917;50.014;8.352;2022-11-27T05:23:08;25.33;;;11.25;;
28760;SDS011;15917;50.014;8.352;2022-11-27T05:25:34;25.42;;;10.60;;
28760;SDS011;15917;50.014;8.352;2022-11-27T05:28:00;25.58;;;11.68;;
28760;SDS011;15917;50.014;8.352;2022-11-27T05:30:25;30.10;;;11.27;;
28760;SDS011;15917;50.014;8.352;2022-11-27T05:32:51;24.70;;;11.15;;
28760;SDS011;15917;50.014;8.352;2022-11-27T05:35:17;27.17;;;11.43;;
28760;SDS011;15917;50.014;8.352;2022-11-27T05:37:42;28.88;;;11.82;;
28760;SDS011;15917;50.014;8.352;2022-11-27T05:40:08;30.73;;;12.48;;
28760;SDS011;15917;50.014;8.352;2022-11-27T05:42:34;31.45;;;13.13;;
28760;SDS011;15917;50.014;8.352;2022-11-27T05:44:59;24.90;;;11.65;;
28760;SDS011;15917;50.014;8.352;2022-11-27T05:47:25;24.33;;;11.23;;
28760;SDS011;15917;50.014;8.352;2022-11-27T05:49:50;31.00;;;12.27;;
28760;SDS011;15917;50.014;8.352;2022-11-27T05:52:16;25.02;;;12.07;;
28760;SDS011;15917;50.014;8.352;2022-11-27T05:54:42;27.75;;;11.68;;
28760;SDS011;15917;50.014;8.352;2022-11-27T05:57:08;43.60;;;11.77;;
28760;SDS011;15917;50.014;8.352;2022-11-27T05:59:33;27.92;;;11.68;;
28760;SDS011;15917;50.014;8.352;2022-11-27T06:01:59;26.13;;;12.48;;
28760;SDS011;15917;50.014;8.352;2022-11-27T06:04:24;33.45;;;11.30;;
28760;SDS011;15917;50.014;8.352;2022-11-27T06:06:50;31.13;;;11.63;;
28760;SDS011;15917;50.014;8.352;2022-11-27T06:09:15;31.05;;;11.48;;
28760;SDS011;15917;50.014;8.352;2022-11-27T06:11:41;32.88;;;11.73;;
28760;SDS011;15917;50.014;8.352;2022-11-27T06:14:07;25.58;;;12.07;;
28760;SDS011;15917;50.014;8.352;2022-11-27T06:16:34;25.13;;;11.52;;
28760;SDS011;15917;50.014;8.352;2022-11-27T06:19:00;28.00;;;11.27;;
28760;SDS011;15917;50.014;8.352;2022-11-27T06:21:25;26.08;;;11.52;;
28760;SDS011;15917;50.014;8.352;2022-11-27T06:23:52;29.65;;;11.70;;
28760;SDS011;15917;50.014;8.352;2022-11-27T06:26:26;26.52;;;11.35;;
28760;SDS011;15917;50.014;8.352;2022-11-27T06:28:53;36.83;;;12.18;;
28760;SDS011;15917;50.014;8.352;2022-11-27T06:31:20;28.13;;;12.65;;
28760;SDS011;15917;50.014;8.352;2022-11-27T06:33:50;29.42;;;12.10;;
28760;SDS011;15917;50.014;8.352;2022-11-27T06:36:17;33.55;;;11.98;;
28760;SDS011;15917;50.014;8.352;2022-11-27T06:38:44;31.45;;;12.07;;
28760;SDS011;15917;50.014;8.352;2022-11-27T06:41:15;39.05;;;12.82;;
28760;SDS011;15917;50.014;8.352;2022-11-27T06:43:45;30.77;;;11.90;;
28760;SDS011;15917;50.014;8.352;2022-11-27T06:46:12;27.08;;;11.95;;
28760;SDS011;15917;50.014;8.352;2022-11-27T06:48:40;24.90;;;11.50;;
28760;SDS011;15917;50.014;8.352;2022-11-27T06:51:07;31.10;;;12.70;;
28760;SDS011;15917;50.014;8.352;2022-11-27T06:53:36;39.58;;;12.05;;
28760;SDS011;15917;50.014;8.352;2022-11-27T06:56:02;32.38;;;12.45;;
28760;SDS011;15917;50.014;8.352;2022-11-27T06:58:29;32.90;;;12.35;;
28760;SDS011;15917;50.014;8.352;2022-11-27T07:00:58;28.42;;;12.48;;
28760;SDS011;15917;50.014;8.352;2022-11-27T07:03:25;25.15;;;11.23;;
28760;SDS011;15917;50.014;8.352;2022-11-27T07:05:51;32.45;;;12.05;;
28760;SDS011;15917;50.014;8.352;2022-11-27T07:08:17;34.65;;;12.45;;
28760;SDS011;15917;50.014;8.352;2022-11-27T07:10:43;31.92;;;13.18;;
28760;SDS011;15917;50.014;8.352;2022-11-27T07:13:09;44.30;;;13.52;;
28760;SDS011;15917;50.014;8.352;2022-11-27T07:15:34;32.78;;;12.38;;
28760;SDS011;15917;50.014;8.352;2022-11-27T07:18:00;31.50;;;12.55;;
28760;SDS011;15917;50.014;8.352;2022-11-27T07:20:26;31.15;;;12.93;;
28760;SDS011;15917;50.014;8.352;2022-11-27T07:22:52;37.00;;;12.68;;
28760;SDS011;15917;50.014;8.352;2022-11-27T07:25:17;30.63;;;12.65;;
28760;SDS011;15917;50.014;8.352;2022-11-27T07:27:43;37.63;;;13.68;;
28760;SDS011;15917;50.014;8.352;2022-11-27T07:30:09;41.80;;;14.35;;
28760;SDS011;15917;50.014;8.352;2022-11-27T07:32:35;33.35;;;13.38;;
28760;SDS011;15917;50.014;8.352;2022-11-27T07:35:00;32.75;;;13.95;;
28760;SDS011;15917;50.014;8.352;2022-11-27T07:37:29;40.30;;;14.25;;
28760;SDS011;15917;50.014;8.352;2022-11-27T07:39:55;33.97;;;13.63;;
28760;SDS011;15917;50.014;8.352;2022-11-27T07:42:21;36.80;;;14.43;;
28760;SDS011;15917;50.014;8.352;2022-11-27T07:44:46;41.17;;;15.63;;
28760;SDS011;15917;50.014;8.352;2022-11-27T07:47:12;49.00;;;16.27;;
28760;SDS011;15917;50.014;8.352;2022-11-27T07:49:38;36.40;;;15.15;;
28760;SDS011;15917;50.014;8.352;2022-11-27T07:52:04;44.70;;;15.65;;
28760;SDS011;15917;50.014;8.352;2022-11-27T07:54:30;44.10;;;16.42;;
28760;SDS011;15917;50.014;8.352;2022-11-27T07:56:55;44.22;;;17.65;;
28760;SDS011;15917;50.014;8.352;2022-11-27T07:59:21;35.95;;;14.98;;
28760;SDS011;15917;50.014;8.352;2022-11-27T08:01:46;47.63;;;17.48;;
28760;SDS011;15917;50.014;8.352;2022-11-27T08:04:12;52.72;;;16.08;;
28760;SDS011;15917;50.014;8.352;2022-11-27T08:06:38;38.53;;;16.65;;
28760;SDS011;15917;50.014;8.352;2022-11-27T08:09:03;48.70;;;17.48;;
28760;SDS011;15917;50.014;8.352;2022-11-27T08:11:30;47.10;;;17.52;;
28760;SDS011;15917;50.014;8.352;2022-11-27T08:14:00;53.80;;;18.13;;
28760;SDS011;15917;50.014;8.352;2022-11-27T08:16:27;42.47;;;16.75;;
28760;SDS011;15917;50.014;8.352;2022-11-27T08:18:54;44.58;;;15.90;;
28760;SDS011;15917;50.014;8.352;2022-11-27T08:21:19;46.30;;;16.23;;
28760;SDS011;15917;50.014;8.352;2022-11-27T08:23:45;51.65;;;16.67;;
28760;SDS011;15917;50.014;8.352;2022-11-27T08:26:11;50.95;;;17.52;;
28760;SDS011;15917;50.014;8.352;2022-11-27T08:28:37;55.53;;;18.15;;
28760;SDS011;15917;50.014;8.352;2022-11-27T08:31:04;56.25;;;18.55;;
28760;SDS011;15917;50.014;8.352;2022-11-27T08:33:31;46.53;;;18.17;;
28760;SDS011;15917;50.014;8.352;2022-11-27T08:35:58;49.38;;;13.70;;
28760;SDS011;15917;50.014;8.352;2022-11-27T08:38:24;53.50;;;19.17;;
28760;SDS011;15917;50.014;8.352;2022-11-27T08:40:56;44.08;;;17.35;;
28760;SDS011;15917;50.014;8.352;2022-11-27T08:43:23;81.35;;;17.67;;
28760;SDS011;15917;50.014;8.352;2022-11-27T08:45:49;69.80;;;19.23;;
28760;SDS011;15917;50.014;8.352;2022-11-27T08:48:15;72.93;;;17.02;;
28760;SDS011;15917;50.014;8.352;2022-11-27T08:50:40;49.90;;;17.60;;
28760;SDS011;15917;50.014;8.352;2022-11-27T08:53:06;56.42;;;18.20;;
28760;SDS011;15917;50.014;8.352;2022-11-27T08:55:32;78.57;;;19.80;;
28760;SDS011;15917;50.014;8.352;2022-11-27T08:57:57;45.50;;;17.83;;
28760;SDS011;15917;50.014;8.352;2022-11-27T09:00:23;66.47;;;16.65;;
28760;SDS011;15917;50.014;8.352;2022-11-27T09:02:49;44.17;;;15.75;;
28760;SDS011;15917;50.014;8.352;2022-11-27T09:05:14;83.93;;;17.73;;
28760;SDS011;15917;50.014;8.352;2022-11-27T09:07:40;61.05;;;17.73;;
28760;SDS011;15917;50.014;8.352;2022-11-27T09:10:06;46.33;;;14.45;;
28760;SDS011;15917;50.014;8.352;2022-11-27T09:12:32;49.85;;;16.42;;
28760;SDS011;15917;50.014;8.352;2022-11-27T09:14:58;55.80;;;16.67;;
28760;SDS011;15917;50.014;8.352;2022-11-27T09:17:23;36.30;;;15.43;;
28760;SDS011;15917;50.014;8.352;2022-11-27T09:19:49;30.63;;;12.85;;
28760;SDS011;15917;50.014;8.352;2022-11-27T09:22:15;38.63;;;14.25;;
28760;SDS011;15917;50.014;8.352;2022-11-27T09:24:40;38.67;;;13.90;;
28760;SDS011;15917;50.014;8.352;2022-11-27T09:27:06;36.47;;;13.98;;
28760;SDS011;15917;50.014;8.352;2022-11-27T09:29:35;62.35;;;13.45;;
28760;SDS011;15917;50.014;8.352;2022-11-27T09:32:01;38.95;;;13.48;;
28760;SDS011;15917;50.014;8.352;2022-11-27T09:34:27;56.47;;;15.32;;
28760;SDS011;15917;50.014;8.352;2022-11-27T09:36:52;47.05;;;15.80;;
28760;SDS011;15917;50.014;8.352;2022-11-27T09:39:18;34.25;;;13.50;;
28760;SDS011;15917;50.014;8.352;2022-11-27T09:41:45;34.78;;;14.35;;
28760;SDS011;15917;50.014;8.352;2022-11-27T09:44:21;41.78;;;15.00;;
28760;SDS011;15917;50.014;8.352;2022-11-27T09:46:51;45.22;;;14.65;;
28760;SDS011;15917;50.014;8.352;2022-11-27T09:52:37;35.22;;;14.40;;
28760;SDS011;15917;50.014;8.352;2022-11-27T09:58:01;31.15;;;14.50;;
28760;SDS011;15917;50.014;8.352;2022-11-27T10:00:31;44.50;;;16.33;;
28760;SDS011;15917;50.014;8.352;2022-11-27T10:02:57;37.58;;;14.80;;
28760;SDS011;15917;50.014;8.352;2022-11-27T10:05:24;36.63;;;16.58;;
28760;SDS011;15917;50.014;8.352;2022-11-27T10:08:09;42.47;;;16.45;;
28760;SDS011;15917;50.014;8.352;2022-11-27T10:16:24;41.78;;;15.00;;
28760;SDS011;15917;50.014;8.352;2022-11-27T10:19:03;38.28;;;15.13;;
28760;SDS011;15917;50.014;8.352;2022-11-27T10:21:49;44.95;;;16.58;;
28760;SDS011;15917;50.014;8.352;2022-11-27T10:24:40;49.03;;;17.80;;
28760;SDS011;15917;50.014;8.352;2022-11-27T10:30:12;50.97;;;19.00;;
28760;SDS011;15917;50.014;8.352;2022-11-27T10:32:43;60.72;;;20.23;;
28760;SDS011;15917;50.014;8.352;2022-11-27T10:35:17;50.58;;;20.25;;
28760;SDS011;15917;50.014;8.352;2022-11-27T10:37:45;48.65;;;20.08;;
28760;SDS011;15917;50.014;8.352;2022-11-27T10:40:29;50.58;;;19.65;;
28760;SDS011;15917;50.014;8.352;2022-11-27T10:46:04;59.33;;;21.40;;
28760;SDS011;15917;50.014;8.352;2022-11-27T10:48:39;56.10;;;20.50;;
28760;SDS011;15917;50.014;8.352;2022-11-27T10:51:11;63.22;;;23.55;;
28760;SDS011;15917;50.014;8.352;2022-11-27T10:53:43;62.13;;;21.75;;
28760;SDS011;15917;50.014;8.352;2022-11-27T10:59:04;48.47;;;19.27;;
28760;SDS011;15917;50.014;8.352;2022-11-27T11:01:41;47.13;;;21.23;;
28760;SDS011;15917;50.014;8.352;2022-11-27T11:04:12;46.22;;;18.63;;
28760;SDS011;15917;50.014;8.352;2022-11-27T11:06:44;53.03;;;19.92;;
28760;SDS011;15917;50.014;8.352;2022-11-27T11:11:36;47.58;;;19.27;;
28760;SDS011;15917;50.014;8.352;2022-11-27T11:14:02;39.95;;;18.17;;
28760;SDS011;15917;50.014;8.352;2022-11-27T11:16:28;42.40;;;18.17;;
28760;SDS011;15917;50.014;8.352;2022-11-27T11:18:55;36.95;;;17.13;;
28760;SDS011;15917;50.014;8.352;2022-11-27T11:21:26;36.55;;;16.50;;
28760;SDS011;15917;50.014;8.352;2022-11-27T11:24:00;35.28;;;15.35;;
28760;SDS011;15917;50.014;8.352;2022-11-27T11:26:48;41.45;;;15.70;;
28760;SDS011;15917;50.014;8.352;2022-11-27T11:34:46;39.72;;;16.25;;
28760;SDS011;15917;50.014;8.352;2022-11-27T11:37:31;42.67;;;16.83;;
28760;SDS011;15917;50.014;8.352;2022-11-27T11:40:04;31.50;;;14.95;;
28760;SDS011;15917;50.014;8.352;2022-11-27T11:42:34;31.63;;;14.52;;
28760;SDS011;15917;50.014;8.352;2022-11-27T11:47:47;37.88;;;15.27;;
28760;SDS011;15917;50.014;8.352;2022-11-27T11:50:29;38.83;;;15.55;;
28760;SDS011;15917;50.014;8.352;2022-11-27T11:53:04;29.98;;;13.13;;
28760;SDS011;15917;50.014;8.352;2022-11-27T11:55:44;33.75;;;15.35;;
28760;SDS011;15917;50.014;8.352;2022-11-27T12:01:12;31.55;;;14.68;;
28760;SDS011;15917;50.014;8.352;2022-11-27T12:03:53;38.60;;;16.73;;
28760;SDS011;15917;50.014;8.352;2022-11-27T12:06:26;37.72;;;15.65;;
28760;SDS011;15917;50.014;8.352;2022-11-27T12:09:20;33.42;;;16.58;;
28760;SDS011;15917;50.014;8.352;2022-11-27T12:25:24;33.17;;;14.38;;
28760;SDS011;15917;50.014;8.352;2022-11-27T12:33:15;35.92;;;14.77;;
28760;SDS011;15917;50.014;8.352;2022-11-27T12:44:31;20.95;;;11.10;;
28760;SDS011;15917;50.014;8.352;2022-11-27T12:47:36;27.70;;;11.27;;
28760;SDS011;15917;50.014;8.352;2022-11-27T12:52:45;25.60;;;11.93;;
28760;SDS011;15917;50.014;8.352;2022-11-27T12:55:21;29.42;;;11.30;;
28760;SDS011;15917;50.014;8.352;2022-11-27T12:58:12;28.60;;;13.18;;
28760;SDS011;15917;50.014;8.352;2022-11-27T13:01:11;26.70;;;11.98;;
28760;SDS011;15917;50.014;8.352;2022-11-27T13:09:29;26.80;;;13.15;;
28760;SDS011;15917;50.014;8.352;2022-11-27T13:12:07;24.95;;;13.02;;
28760;SDS011;15917;50.014;8.352;2022-11-27T13:14:36;31.85;;;13.98;;
28760;SDS011;15917;50.014;8.352;2022-11-27T13:17:07;25.08;;;13.23;;
28760;SDS011;15917;50.014;8.352;2022-11-27T13:19:44;30.67;;;13.95;;
28760;SDS011;15917;50.014;8.352;2022-11-27T13:22:22;27.15;;;13.18;;
28760;SDS011;15917;50.014;8.352;2022-11-27T13:24:54;26.80;;;13.63;;
28760;SDS011;15917;50.014;8.352;2022-11-27T13:27:24;28.27;;;13.65;;
28760;SDS011;15917;50.014;8.352;2022-11-27T13:29:56;29.30;;;13.18;;
28760;SDS011;15917;50.014;8.352;2022-11-27T13:32:26;33.97;;;14.45;;
28760;SDS011;15917;50.014;8.352;2022-11-27T13:34:57;26.10;;;13.60;;
28760;SDS011;15917;50.014;8.352;2022-11-27T13:37:32;29.80;;;13.60;;
28760;SDS011;15917;50.014;8.352;2022-11-27T13:40:05;27.75;;;14.27;;
28760;SDS011;15917;50.014;8.352;2022-11-27T13:45:32;26.98;;;12.25;;
28760;SDS011;15917;50.014;8.352;2022-11-27T13:48:01;27.42;;;12.85;;
28760;SDS011;15917;50.014;8.352;2022-11-27T13:50:43;31.27;;;13.25;;
28760;SDS011;15917;50.014;8.352;2022-11-27T13:53:10;32.80;;;12.88;;
28760;SDS011;15917;50.014;8.352;2022-11-27T13:55:38;28.15;;;13.48;;
28760;SDS011;15917;50.014;8.352;2022-11-27T13:58:25;27.75;;;13.68;;
28760;SDS011;15917;50.014;8.352;2022-11-27T14:00:56;27.27;;;12.95;;
28760;SDS011;15917;50.014;8.352;2022-11-27T14:03:23;30.50;;;13.82;;
28760;SDS011;15917;50.014;8.352;2022-11-27T14:05:51;32.20;;;13.52;;
28760;SDS011;15917;50.014;8.352;2022-11-27T14:13:15;27.92;;;13.25;;
28760;SDS011;15917;50.014;8.352;2022-11-27T14:15:42;30.73;;;14.32;;
28760;SDS011;15917;50.014;8.352;2022-11-27T14:18:17;28.55;;;13.43;;
28760;SDS011;15917;50.014;8.352;2022-11-27T14:20:49;30.20;;;13.52;;
28760;SDS011;15917;50.014;8.352;2022-11-27T14:23:27;35.72;;;13.98;;
28760;SDS011;15917;50.014;8.352;2022-11-27T14:26:18;29.13;;;14.10;;
28760;SDS011;15917;50.014;8.352;2022-11-27T14:28:48;29.50;;;13.05;;
28760;SDS011;15917;50.014;8.352;2022-11-27T14:33:53;30.73;;;14.25;;
28760;SDS011;15917;50.014;8.352;2022-11-27T14:38:48;31.38;;;13.73;;
28760;SDS011;15917;50.014;8.352;2022-11-27T14:41:16;32.10;;;13.70;;
28760;SDS011;15917;50.014;8.352;2022-11-27T14:43:44;29.83;;;13.88;;
28760;SDS011;15917;50.014;8.352;2022-11-27T14:46:13;29.95;;;13.82;;
28760;SDS011;15917;50.014;8.352;2022-11-27T14:48:45;31.42;;;14.20;;
28760;SDS011;15917;50.014;8.352;2022-11-27T14:51:25;31.15;;;15.38;;
28760;SDS011;15917;50.014;8.352;2022-11-27T14:54:01;36.05;;;15.77;;
28760;SDS011;15917;50.014;8.352;2022-11-27T14:56:40;30.15;;;14.95;;
28760;SDS011;15917;50.014;8.352;2022-11-27T14:59:21;26.20;;;13.88;;
28760;SDS011;15917;50.014;8.352;2022-11-27T15:02:01;32.00;;;13.35;;
28760;SDS011;15917;50.014;8.352;2022-11-27T15:04:34;30.73;;;14.15;;
28760;SDS011;15917;50.014;8.352;2022-11-27T15:07:05;28.33;;;14.00;;
28760;SDS011;15917;50.014;8.352;2022-11-27T15:09:49;32.35;;;13.43;;
28760;SDS011;15917;50.014;8.352;2022-11-27T15:12:17;31.65;;;13.57;;
28760;SDS011;15917;50.014;8.352;2022-11-27T15:14:50;28.98;;;13.20;;
28760;SDS011;15917;50.014;8.352;2022-11-27T15:17:22;30.17;;;15.38;;
28760;SDS011;15917;50.014;8.352;2022-11-27T15:19:50;33.92;;;15.73;;
28760;SDS011;15917;50.014;8.352;2022-11-27T15:22:16;32.13;;;13.57;;
28760;SDS011;15917;50.014;8.352;2022-11-27T15:24:43;29.17;;;13.75;;
28760;SDS011;15917;50.014;8.352;2022-11-27T15:29:39;27.65;;;13.98;;
28760;SDS011;15917;50.014;8.352;2022-11-27T15:32:15;29.50;;;14.48;;
28760;SDS011;15917;50.014;8.352;2022-11-27T15:34:42;29.77;;;13.68;;
28760;SDS011;15917;50.014;8.352;2022-11-27T15:37:27;32.25;;;14.02;;
28760;SDS011;15917;50.014;8.352;2022-11-27T15:39:58;27.58;;;13.40;;
28760;SDS011;15917;50.014;8.352;2022-11-27T15:42:25;28.95;;;15.82;;
28760;SDS011;15917;50.014;8.352;2022-11-27T15:44:52;56.70;;;19.80;;
28760;SDS011;15917;50.014;8.352;2022-11-27T15:47:26;35.17;;;15.45;;
28760;SDS011;15917;50.014;8.352;2022-11-27T15:50:02;49.47;;;19.80;;
28760;SDS011;15917;50.014;8.352;2022-11-27T15:52:29;32.55;;;15.60;;
28760;SDS011;15917;50.014;8.352;2022-11-27T15:54:55;32.95;;;15.85;;
28760;SDS011;15917;50.014;8.352;2022-11-27T15:57:21;34.83;;;16.45;;
28760;SDS011;15917;50.014;8.352;2022-11-27T15:59:47;36.33;;;16.65;;
28760;SDS011;15917;50.014;8.352;2022-11-27T16:02:12;46.58;;;19.77;;
28760;SDS011;15917;50.014;8.352;2022-11-27T16:04:38;37.55;;;16.90;;
28760;SDS011;15917;50.014;8.352;2022-11-27T16:07:05;54.25;;;21.85;;
28760;SDS011;15917;50.014;8.352;2022-11-27T16:09:32;56.90;;;23.75;;
28760;SDS011;15917;50.014;8.352;2022-11-27T16:11:59;41.03;;;19.08;;
28760;SDS011;15917;50.014;8.352;2022-11-27T16:14:25;43.47;;;20.08;;
28760;SDS011;15917;50.014;8.352;2022-11-27T16:16:51;32.75;;;16.73;;
28760;SDS011;15917;50.014;8.352;2022-11-27T16:19:17;39.17;;;17.27;;
28760;SDS011;15917;50.014;8.352;2022-11-27T16:21:43;48.33;;;20.15;;
28760;SDS011;15917;50.014;8.352;2022-11-27T16:24:10;35.53;;;15.88;;
28760;SDS011;15917;50.014;8.352;2022-11-27T16:26:37;57.92;;;22.80;;
28760;SDS011;15917;50.014;8.352;2022-11-27T16:29:04;50.20;;;20.35;;
28760;SDS011;15917;50.014;8.352;2022-11-27T16:31:30;41.65;;;17.70;;